sensor_id;sensor_type;location;lat;lon;timestamp;P1;durP1;ratioP1;P2;durP2;ratioP2
40154;SDS011;25875;48.202;16.334;2023-04-19T00:02:07;11.43;;;9.50;;
40154;SDS011;25875;48.202;16.334;2023-04-19T00:04:34;11.85;;;9.95;;
40154;SDS011;25875;48.202;16.334;2023-04-19T00:07:05;11.60;;;10.40;;
40154;SDS011;25875;48.202;16.334;2023-04-19T00:09:33;11.63;;;10.32;;
40154;SDS011;25875;48.202;16.334;2023-04-19T00:12:00;12.05;;;10.55;;
40154;SDS011;25875;48.202;16.334;2023-04-19T00:14:27;10.52;;;9.45;;
40154;SDS011;25875;48.202;16.334;2023-04-19T00:16:54;11.98;;;9.93;;
40154;SDS011;25875;48.202;16.334;2023-04-19T00:19:20;12.77;;;10.55;;
40154;SDS011;25875;48.202;16.334;2023-04-19T00:21:47;11.80;;;10.23;;
40154;SDS011;25875;48.202;16.334;2023-04-19T00:24:14;12.13;;;10.65;;
40154;SDS011;25875;48.202;16.334;2023-04-19T00:26:42;15.40;;;10.57;;
40154;SDS011;25875;48.202;16.334;2023-04-19T00:29:09;11.52;;;10.15;;
40154;SDS011;25875;48.202;16.334;2023-04-19T00:31:36;12.65;;;10.98;;
40154;SDS011;25875;48.202;16.334;2023-04-19T00:34:03;11.57;;;10.07;;
40154;SDS011;25875;48.202;16.334;2023-04-19T00:36:30;11.77;;;10.40;;
40154;SDS011;25875;48.202;16.334;2023-04-19T00:38:57;12.98;;;11.60;;
40154;SDS011;25875;48.202;16.334;2023-04-19T00:41:23;11.57;;;10.20;;
40154;SDS011;25875;48.202;16.334;2023-04-19T00:43:51;12.80;;;11.25;;
40154;SDS011;25875;48.202;16.334;2023-04-19T00:46:18;14.23;;;11.82;;
40154;SDS011;25875;48.202;16.334;2023-04-19T00:48:45;13.90;;;11.55;;
40154;SDS011;25875;48.202;16.334;2023-04-19T00:51:13;12.50;;;11.00;;
40154;SDS011;25875;48.202;16.334;2023-04-19T00:53:39;12.93;;;11.52;;
40154;SDS011;25875;48.202;16.334;2023-04-19T00:56:06;14.30;;;11.35;;
40154;SDS011;25875;48.202;16.334;2023-04-19T00:58:34;14.23;;;11.40;;
40154;SDS011;25875;48.202;16.334;2023-04-19T01:01:05;13.38;;;11.98;;
40154;SDS011;25875;48.202;16.334;2023-04-19T01:03:31;13.45;;;11.13;;
40154;SDS011;25875;48.202;16.334;2023-04-19T01:05:59;13.38;;;11.93;;
40154;SDS011;25875;48.202;16.334;2023-04-19T01:08:26;11.98;;;10.70;;
40154;SDS011;25875;48.202;16.334;2023-04-19T01:10:52;12.60;;;11.30;;
40154;SDS011;25875;48.202;16.334;2023-04-19T01:13:19;12.95;;;11.65;;
40154;SDS011;25875;48.202;16.334;2023-04-19T01:15:46;13.73;;;12.30;;
40154;SDS011;25875;48.202;16.334;2023-04-19T01:18:14;13.68;;;12.25;;
40154;SDS011;25875;48.202;16.334;2023-04-19T01:20:41;14.07;;;12.10;;
40154;SDS011;25875;48.202;16.334;2023-04-19T01:23:09;14.40;;;11.93;;
40154;SDS011;25875;48.202;16.334;2023-04-19T01:25:36;12.30;;;10.45;;
40154;SDS011;25875;48.202;16.334;2023-04-19T01:28:03;13.02;;;11.65;;
40154;SDS011;25875;48.202;16.334;2023-04-19T01:30:30;13.13;;;11.73;;
40154;SDS011;25875;48.202;16.334;2023-04-19T01:32:56;13.90;;;12.30;;
40154;SDS011;25875;48.202;16.334;2023-04-19T01:35:23;14.85;;;12.30;;
40154;SDS011;25875;48.202;16.334;2023-04-19T01:37:50;13.18;;;11.82;;
40154;SDS011;25875;48.202;16.334;2023-04-19T01:40:21;15.63;;;11.82;;
40154;SDS011;25875;48.202;16.334;2023-04-19T01:42:48;13.00;;;11.65;;
40154;SDS011;25875;48.202;16.334;2023-04-19T01:45:15;14.20;;;12.57;;
40154;SDS011;25875;48.202;16.334;2023-04-19T01:47:42;14.63;;;12.80;;
40154;SDS011;25875;48.202;16.334;2023-04-19T01:50:09;14.32;;;12.55;;
40154;SDS011;25875;48.202;16.334;2023-04-19T01:52:36;15.30;;;13.60;;
40154;SDS011;25875;48.202;16.334;2023-04-19T01:55:03;14.43;;;12.45;;
40154;SDS011;25875;48.202;16.334;2023-04-19T01:57:31;14.73;;;13.18;;
40154;SDS011;25875;48.202;16.334;2023-04-19T01:59:58;16.13;;;14.43;;
40154;SDS011;25875;48.202;16.334;2023-04-19T02:02:25;14.85;;;13.35;;
40154;SDS011;25875;48.202;16.334;2023-04-19T02:04:51;13.55;;;11.50;;
40154;SDS011;25875;48.202;16.334;2023-04-19T02:07:18;12.95;;;11.57;;
40154;SDS011;25875;48.202;16.334;2023-04-19T02:09:45;15.00;;;13.13;;
40154;SDS011;25875;48.202;16.334;2023-04-19T02:12:11;15.93;;;13.40;;
40154;SDS011;25875;48.202;16.334;2023-04-19T02:14:39;14.40;;;12.73;;
40154;SDS011;25875;48.202;16.334;2023-04-19T02:17:06;15.50;;;12.90;;
40154;SDS011;25875;48.202;16.334;2023-04-19T02:19:33;15.45;;;13.95;;
40154;SDS011;25875;48.202;16.334;2023-04-19T02:22:00;16.75;;;13.85;;
40154;SDS011;25875;48.202;16.334;2023-04-19T02:24:27;17.58;;;15.05;;
40154;SDS011;25875;48.202;16.334;2023-04-19T02:26:53;16.08;;;14.00;;
40154;SDS011;25875;48.202;16.334;2023-04-19T02:29:20;15.02;;;13.45;;
40154;SDS011;25875;48.202;16.334;2023-04-19T02:31:48;16.00;;;14.30;;
40154;SDS011;25875;48.202;16.334;2023-04-19T02:34:15;15.35;;;13.75;;
40154;SDS011;25875;48.202;16.334;2023-04-19T02:36:42;15.05;;;13.30;;
40154;SDS011;25875;48.202;16.334;2023-04-19T02:39:09;14.60;;;13.07;;
40154;SDS011;25875;48.202;16.334;2023-04-19T02:41:36;16.83;;;12.80;;
40154;SDS011;25875;48.202;16.334;2023-04-19T02:44:03;14.88;;;13.27;;
40154;SDS011;25875;48.202;16.334;2023-04-19T02:46:30;14.75;;;13.18;;
40154;SDS011;25875;48.202;16.334;2023-04-19T02:48:59;17.15;;;13.45;;
40154;SDS011;25875;48.202;16.334;2023-04-19T02:51:25;17.25;;;14.02;;
40154;SDS011;25875;48.202;16.334;2023-04-19T02:53:52;16.45;;;14.73;;
40154;SDS011;25875;48.202;16.334;2023-04-19T02:56:19;16.52;;;14.73;;
40154;SDS011;25875;48.202;16.334;2023-04-19T02:58:45;16.17;;;14.13;;
40154;SDS011;25875;48.202;16.334;2023-04-19T03:01:12;22.60;;;15.27;;
40154;SDS011;25875;48.202;16.334;2023-04-19T03:03:39;16.77;;;14.98;;
40154;SDS011;25875;48.202;16.334;2023-04-19T03:06:07;17.98;;;16.08;;
40154;SDS011;25875;48.202;16.334;2023-04-19T03:08:34;20.45;;;16.02;;
40154;SDS011;25875;48.202;16.334;2023-04-19T03:11:00;16.98;;;15.20;;
40154;SDS011;25875;48.202;16.334;2023-04-19T03:13:27;20.13;;;16.48;;
40154;SDS011;25875;48.202;16.334;2023-04-19T03:15:54;15.70;;;13.85;;
40154;SDS011;25875;48.202;16.334;2023-04-19T03:18:20;16.27;;;14.63;;
40154;SDS011;25875;48.202;16.334;2023-04-19T03:20:47;20.95;;;15.27;;
40154;SDS011;25875;48.202;16.334;2023-04-19T03:23:15;16.92;;;15.02;;
40154;SDS011;25875;48.202;16.334;2023-04-19T03:25:42;17.45;;;15.68;;
40154;SDS011;25875;48.202;16.334;2023-04-19T03:28:08;19.25;;;15.60;;
40154;SDS011;25875;48.202;16.334;2023-04-19T03:30:35;19.23;;;14.82;;
40154;SDS011;25875;48.202;16.334;2023-04-19T03:33:02;18.35;;;15.57;;
40154;SDS011;25875;48.202;16.334;2023-04-19T03:35:29;19.52;;;16.27;;
40154;SDS011;25875;48.202;16.334;2023-04-19T03:37:56;17.95;;;16.05;;
40154;SDS011;25875;48.202;16.334;2023-04-19T03:40:24;19.55;;;16.70;;
40154;SDS011;25875;48.202;16.334;2023-04-19T03:42:51;21.27;;;16.48;;
40154;SDS011;25875;48.202;16.334;2023-04-19T03:45:18;19.15;;;17.23;;
40154;SDS011;25875;48.202;16.334;2023-04-19T03:47:44;22.65;;;16.95;;
40154;SDS011;25875;48.202;16.334;2023-04-19T03:50:11;19.92;;;16.63;;
40154;SDS011;25875;48.202;16.334;2023-04-19T03:52:38;17.90;;;16.00;;
40154;SDS011;25875;48.202;16.334;2023-04-19T03:55:05;17.42;;;15.60;;
40154;SDS011;25875;48.202;16.334;2023-04-19T03:57:33;21.98;;;17.95;;
40154;SDS011;25875;48.202;16.334;2023-04-19T04:00:00;23.98;;;18.30;;
40154;SDS011;25875;48.202;16.334;2023-04-19T04:02:31;20.98;;;16.17;;
40154;SDS011;25875;48.202;16.334;2023-04-19T04:04:57;20.08;;;17.70;;
40154;SDS011;25875;48.202;16.334;2023-04-19T04:07:24;20.13;;;17.83;;
40154;SDS011;25875;48.202;16.334;2023-04-19T04:09:51;20.73;;;18.52;;
40154;SDS011;25875;48.202;16.334;2023-04-19T04:12:17;19.77;;;17.67;;
40154;SDS011;25875;48.202;16.334;2023-04-19T04:14:45;19.70;;;17.60;;
40154;SDS011;25875;48.202;16.334;2023-04-19T04:17:12;19.17;;;16.63;;
40154;SDS011;25875;48.202;16.334;2023-04-19T04:19:39;19.95;;;17.40;;
40154;SDS011;25875;48.202;16.334;2023-04-19T04:22:05;18.92;;;16.80;;
40154;SDS011;25875;48.202;16.334;2023-04-19T04:24:36;21.38;;;16.98;;
40154;SDS011;25875;48.202;16.334;2023-04-19T04:27:05;22.70;;;17.17;;
40154;SDS011;25875;48.202;16.334;2023-04-19T04:29:34;20.63;;;18.50;;
40154;SDS011;25875;48.202;16.334;2023-04-19T04:32:02;21.52;;;18.70;;
40154;SDS011;25875;48.202;16.334;2023-04-19T04:34:30;21.33;;;17.95;;
40154;SDS011;25875;48.202;16.334;2023-04-19T04:36:57;21.75;;;17.45;;
40154;SDS011;25875;48.202;16.334;2023-04-19T04:39:23;19.30;;;16.40;;
40154;SDS011;25875;48.202;16.334;2023-04-19T04:41:50;17.63;;;15.77;;
40154;SDS011;25875;48.202;16.334;2023-04-19T04:44:17;18.00;;;16.10;;
40154;SDS011;25875;48.202;16.334;2023-04-19T04:46:44;21.75;;;18.73;;
40154;SDS011;25875;48.202;16.334;2023-04-19T04:49:13;20.27;;;17.30;;
40154;SDS011;25875;48.202;16.334;2023-04-19T04:51:39;18.67;;;16.77;;
40154;SDS011;25875;48.202;16.334;2023-04-19T04:54:06;20.05;;;17.75;;
40154;SDS011;25875;48.202;16.334;2023-04-19T04:56:33;19.77;;;16.98;;
40154;SDS011;25875;48.202;16.334;2023-04-19T04:58:59;19.17;;;17.17;;
40154;SDS011;25875;48.202;16.334;2023-04-19T05:01:26;18.17;;;16.25;;
40154;SDS011;25875;48.202;16.334;2023-04-19T05:03:53;18.25;;;16.20;;
40154;SDS011;25875;48.202;16.334;2023-04-19T05:06:21;18.10;;;15.45;;
40154;SDS011;25875;48.202;16.334;2023-04-19T05:08:48;18.13;;;16.23;;
40154;SDS011;25875;48.202;16.334;2023-04-19T05:11:14;18.30;;;16.42;;
40154;SDS011;25875;48.202;16.334;2023-04-19T05:13:41;17.42;;;15.57;;
40154;SDS011;25875;48.202;16.334;2023-04-19T05:16:08;18.63;;;16.63;;
40154;SDS011;25875;48.202;16.334;2023-04-19T05:18:35;20.70;;;17.08;;
40154;SDS011;25875;48.202;16.334;2023-04-19T05:21:01;20.00;;;16.45;;
40154;SDS011;25875;48.202;16.334;2023-04-19T05:23:29;17.50;;;15.68;;
40154;SDS011;25875;48.202;16.334;2023-04-19T05:25:56;19.33;;;17.23;;
40154;SDS011;25875;48.202;16.334;2023-04-19T05:28:23;18.10;;;16.13;;
40154;SDS011;25875;48.202;16.334;2023-04-19T05:30:50;18.70;;;16.45;;
40154;SDS011;25875;48.202;16.334;2023-04-19T05:33:17;21.00;;;17.25;;
40154;SDS011;25875;48.202;16.334;2023-04-19T05:35:44;19.40;;;16.15;;
40154;SDS011;25875;48.202;16.334;2023-04-19T05:38:10;17.70;;;15.85;;
40154;SDS011;25875;48.202;16.334;2023-04-19T05:40:38;17.33;;;15.35;;
40154;SDS011;25875;48.202;16.334;2023-04-19T05:43:05;19.70;;;15.73;;
40154;SDS011;25875;48.202;16.334;2023-04-19T05:45:32;16.45;;;14.63;;
40154;SDS011;25875;48.202;16.334;2023-04-19T05:47:58;18.48;;;15.32;;
40154;SDS011;25875;48.202;16.334;2023-04-19T05:50:25;18.25;;;16.35;;
40154;SDS011;25875;48.202;16.334;2023-04-19T05:52:52;18.60;;;16.40;;
40154;SDS011;25875;48.202;16.334;2023-04-19T05:55:19;20.58;;;16.67;;
40154;SDS011;25875;48.202;16.334;2023-04-19T05:57:47;19.92;;;16.25;;
40154;SDS011;25875;48.202;16.334;2023-04-19T06:00:15;19.45;;;16.33;;
40154;SDS011;25875;48.202;16.334;2023-04-19T06:02:42;19.52;;;17.20;;
40154;SDS011;25875;48.202;16.334;2023-04-19T06:05:09;19.42;;;16.73;;
40154;SDS011;25875;48.202;16.334;2023-04-19T06:07:35;19.20;;;16.17;;
40154;SDS011;25875;48.202;16.334;2023-04-19T06:10:02;20.35;;;18.20;;
40154;SDS011;25875;48.202;16.334;2023-04-19T06:12:30;20.10;;;17.85;;
40154;SDS011;25875;48.202;16.334;2023-04-19T06:14:58;19.73;;;17.63;;
40154;SDS011;25875;48.202;16.334;2023-04-19T06:17:25;20.58;;;17.20;;
40154;SDS011;25875;48.202;16.334;2023-04-19T06:19:51;18.67;;;16.67;;
40154;SDS011;25875;48.202;16.334;2023-04-19T06:22:18;19.52;;;17.52;;
40154;SDS011;25875;48.202;16.334;2023-04-19T06:24:46;18.02;;;15.55;;
40154;SDS011;25875;48.202;16.334;2023-04-19T06:27:14;19.30;;;17.13;;
40154;SDS011;25875;48.202;16.334;2023-04-19T06:29:41;20.35;;;17.55;;
40154;SDS011;25875;48.202;16.334;2023-04-19T06:32:09;18.60;;;16.67;;
40154;SDS011;25875;48.202;16.334;2023-04-19T06:34:36;20.85;;;18.35;;
40154;SDS011;25875;48.202;16.334;2023-04-19T06:37:03;19.48;;;16.63;;
40154;SDS011;25875;48.202;16.334;2023-04-19T06:39:29;21.05;;;17.60;;
40154;SDS011;25875;48.202;16.334;2023-04-19T06:41:56;19.67;;;17.60;;
40154;SDS011;25875;48.202;16.334;2023-04-19T06:44:23;18.63;;;16.33;;
40154;SDS011;25875;48.202;16.334;2023-04-19T06:46:49;20.67;;;16.73;;
40154;SDS011;25875;48.202;16.334;2023-04-19T06:49:18;18.42;;;16.52;;
40154;SDS011;25875;48.202;16.334;2023-04-19T06:51:44;18.83;;;16.75;;
40154;SDS011;25875;48.202;16.334;2023-04-19T06:54:11;18.27;;;16.33;;
40154;SDS011;25875;48.202;16.334;2023-04-19T06:56:38;20.33;;;17.02;;
40154;SDS011;25875;48.202;16.334;2023-04-19T06:59:09;18.80;;;15.57;;
40154;SDS011;25875;48.202;16.334;2023-04-19T07:01:36;19.40;;;16.42;;
40154;SDS011;25875;48.202;16.334;2023-04-19T07:04:03;19.23;;;17.13;;
40154;SDS011;25875;48.202;16.334;2023-04-19T07:06:32;18.08;;;16.08;;
40154;SDS011;25875;48.202;16.334;2023-04-19T07:08:59;19.90;;;17.10;;
40154;SDS011;25875;48.202;16.334;2023-04-19T07:11:26;19.33;;;16.55;;
40154;SDS011;25875;48.202;16.334;2023-04-19T07:13:52;17.88;;;15.85;;
40154;SDS011;25875;48.202;16.334;2023-04-19T07:16:19;17.75;;;15.95;;
40154;SDS011;25875;48.202;16.334;2023-04-19T07:18:46;17.95;;;15.25;;
40154;SDS011;25875;48.202;16.334;2023-04-19T07:21:13;17.20;;;15.40;;
40154;SDS011;25875;48.202;16.334;2023-04-19T07:23:41;16.67;;;14.88;;
40154;SDS011;25875;48.202;16.334;2023-04-19T07:26:08;16.45;;;14.25;;
40154;SDS011;25875;48.202;16.334;2023-04-19T07:28:35;16.42;;;13.55;;
40154;SDS011;25875;48.202;16.334;2023-04-19T07:31:01;16.48;;;14.50;;
40154;SDS011;25875;48.202;16.334;2023-04-19T07:33:28;16.95;;;15.18;;
40154;SDS011;25875;48.202;16.334;2023-04-19T07:35:55;16.25;;;14.52;;
40154;SDS011;25875;48.202;16.334;2023-04-19T07:38:21;16.15;;;14.48;;
40154;SDS011;25875;48.202;16.334;2023-04-19T07:40:50;16.33;;;14.30;;
40154;SDS011;25875;48.202;16.334;2023-04-19T07:43:16;14.68;;;12.40;;
40154;SDS011;25875;48.202;16.334;2023-04-19T07:45:43;14.10;;;12.60;;
40154;SDS011;25875;48.202;16.334;2023-04-19T07:48:10;14.68;;;12.32;;
40154;SDS011;25875;48.202;16.334;2023-04-19T07:50:36;13.65;;;11.45;;
40154;SDS011;25875;48.202;16.334;2023-04-19T07:53:03;14.18;;;11.15;;
40154;SDS011;25875;48.202;16.334;2023-04-19T07:55:30;13.32;;;11.95;;
40154;SDS011;25875;48.202;16.334;2023-04-19T07:57:59;12.60;;;10.75;;
40154;SDS011;25875;48.202;16.334;2023-04-19T08:00:26;13.07;;;11.68;;
40154;SDS011;25875;48.202;16.334;2023-04-19T08:02:54;14.00;;;11.95;;
40154;SDS011;25875;48.202;16.334;2023-04-19T08:05:21;12.25;;;10.95;;
40154;SDS011;25875;48.202;16.334;2023-04-19T08:07:49;12.95;;;11.07;;
40154;SDS011;25875;48.202;16.334;2023-04-19T08:10:17;12.48;;;10.30;;
40154;SDS011;25875;48.202;16.334;2023-04-19T08:12:44;11.90;;;10.38;;
40154;SDS011;25875;48.202;16.334;2023-04-19T08:15:12;12.00;;;10.82;;
40154;SDS011;25875;48.202;16.334;2023-04-19T08:17:39;14.98;;;12.32;;
40154;SDS011;25875;48.202;16.334;2023-04-19T08:20:08;13.25;;;11.55;;
40154;SDS011;25875;48.202;16.334;2023-04-19T08:22:36;13.13;;;11.82;;
40154;SDS011;25875;48.202;16.334;2023-04-19T08:25:03;12.38;;;10.88;;
40154;SDS011;25875;48.202;16.334;2023-04-19T08:27:31;13.57;;;10.73;;
40154;SDS011;25875;48.202;16.334;2023-04-19T08:29:58;12.07;;;9.82;;
40154;SDS011;25875;48.202;16.334;2023-04-19T08:32:26;12.75;;;10.77;;
40154;SDS011;25875;48.202;16.334;2023-04-19T08:34:52;13.85;;;10.98;;
40154;SDS011;25875;48.202;16.334;2023-04-19T08:37:19;13.68;;;11.82;;
40154;SDS011;25875;48.202;16.334;2023-04-19T08:39:46;12.77;;;10.93;;
40154;SDS011;25875;48.202;16.334;2023-04-19T08:42:13;13.18;;;11.63;;
40154;SDS011;25875;48.202;16.334;2023-04-19T08:44:39;12.30;;;10.45;;
40154;SDS011;25875;48.202;16.334;2023-04-19T08:47:07;12.95;;;11.52;;
40154;SDS011;25875;48.202;16.334;2023-04-19T08:49:36;11.60;;;10.40;;
40154;SDS011;25875;48.202;16.334;2023-04-19T08:52:05;11.15;;;9.98;;
40154;SDS011;25875;48.202;16.334;2023-04-19T08:54:32;13.02;;;10.65;;
40154;SDS011;25875;48.202;16.334;2023-04-19T08:57:00;12.35;;;11.02;;
40154;SDS011;25875;48.202;16.334;2023-04-19T08:59:29;10.18;;;8.45;;
40154;SDS011;25875;48.202;16.334;2023-04-19T09:01:59;10.95;;;9.57;;
40154;SDS011;25875;48.202;16.334;2023-04-19T09:04:26;10.98;;;9.25;;
40154;SDS011;25875;48.202;16.334;2023-04-19T09:06:54;10.77;;;9.60;;
40154;SDS011;25875;48.202;16.334;2023-04-19T09:09:21;9.02;;;7.95;;
40154;SDS011;25875;48.202;16.334;2023-04-19T09:11:50;10.25;;;7.75;;
40154;SDS011;25875;48.202;16.334;2023-04-19T09:14:17;11.27;;;8.60;;
40154;SDS011;25875;48.202;16.334;2023-04-19T09:16:45;10.95;;;8.48;;
40154;SDS011;25875;48.202;16.334;2023-04-19T09:19:12;10.30;;;9.20;;
40154;SDS011;25875;48.202;16.334;2023-04-19T09:21:40;7.97;;;6.78;;
40154;SDS011;25875;48.202;16.334;2023-04-19T09:24:09;11.02;;;7.72;;
40154;SDS011;25875;48.202;16.334;2023-04-19T09:26:35;8.65;;;7.07;;
40154;SDS011;25875;48.202;16.334;2023-04-19T09:29:03;7.00;;;6.30;;
40154;SDS011;25875;48.202;16.334;2023-04-19T09:31:31;8.27;;;6.75;;
40154;SDS011;25875;48.202;16.334;2023-04-19T09:34:10;7.97;;;7.18;;
40154;SDS011;25875;48.202;16.334;2023-04-19T09:36:38;7.60;;;6.32;;
40154;SDS011;25875;48.202;16.334;2023-04-19T09:39:05;8.60;;;7.40;;
40154;SDS011;25875;48.202;16.334;2023-04-19T09:41:34;8.48;;;7.55;;
40154;SDS011;25875;48.202;16.334;2023-04-19T09:44:08;8.32;;;7.20;;
40154;SDS011;25875;48.202;16.334;2023-04-19T09:46:38;7.43;;;6.18;;
40154;SDS011;25875;48.202;16.334;2023-04-19T09:49:16;8.98;;;7.15;;
40154;SDS011;25875;48.202;16.334;2023-04-19T09:51:45;7.18;;;6.28;;
40154;SDS011;25875;48.202;16.334;2023-04-19T09:54:13;8.85;;;6.65;;
40154;SDS011;25875;48.202;16.334;2023-04-19T09:56:42;8.23;;;7.00;;
40154;SDS011;25875;48.202;16.334;2023-04-19T09:59:09;8.23;;;7.25;;
40154;SDS011;25875;48.202;16.334;2023-04-19T10:01:37;8.45;;;7.55;;
40154;SDS011;25875;48.202;16.334;2023-04-19T10:04:05;8.05;;;7.25;;
40154;SDS011;25875;48.202;16.334;2023-04-19T10:06:33;9.93;;;6.68;;
40154;SDS011;25875;48.202;16.334;2023-04-19T10:09:01;8.93;;;7.88;;
40154;SDS011;25875;48.202;16.334;2023-04-19T10:11:30;9.75;;;8.40;;
40154;SDS011;25875;48.202;16.334;2023-04-19T10:14:02;7.20;;;6.50;;
40154;SDS011;25875;48.202;16.334;2023-04-19T10:16:30;10.65;;;7.78;;
40154;SDS011;25875;48.202;16.334;2023-04-19T10:18:58;7.18;;;6.05;;
40154;SDS011;25875;48.202;16.334;2023-04-19T10:21:26;7.70;;;6.75;;
40154;SDS011;25875;48.202;16.334;2023-04-19T10:23:54;11.75;;;7.63;;
40154;SDS011;25875;48.202;16.334;2023-04-19T10:26:21;8.60;;;7.70;;
40154;SDS011;25875;48.202;16.334;2023-04-19T10:28:48;7.90;;;6.97;;
40154;SDS011;25875;48.202;16.334;2023-04-19T10:31:18;8.52;;;7.53;;
40154;SDS011;25875;48.202;16.334;2023-04-19T10:33:47;8.45;;;6.57;;
40154;SDS011;25875;48.202;16.334;2023-04-19T10:36:15;9.95;;;8.15;;
40154;SDS011;25875;48.202;16.334;2023-04-19T10:38:43;8.55;;;7.63;;
40154;SDS011;25875;48.202;16.334;2023-04-19T10:41:12;10.48;;;8.82;;
40154;SDS011;25875;48.202;16.334;2023-04-19T10:43:40;9.05;;;7.45;;
40154;SDS011;25875;48.202;16.334;2023-04-19T10:46:12;8.77;;;7.88;;
40154;SDS011;25875;48.202;16.334;2023-04-19T10:48:48;10.02;;;8.88;;
40154;SDS011;25875;48.202;16.334;2023-04-19T10:51:19;14.07;;;8.95;;
40154;SDS011;25875;48.202;16.334;2023-04-19T10:53:50;9.98;;;8.85;;
40154;SDS011;25875;48.202;16.334;2023-04-19T10:56:19;9.55;;;8.50;;
40154;SDS011;25875;48.202;16.334;2023-04-19T11:01:47;10.68;;;8.32;;
40154;SDS011;25875;48.202;16.334;2023-04-19T11:07:39;9.15;;;8.10;;
40154;SDS011;25875;48.202;16.334;2023-04-19T11:10:07;11.70;;;10.50;;
40154;SDS011;25875;48.202;16.334;2023-04-19T11:12:35;12.18;;;8.98;;
40154;SDS011;25875;48.202;16.334;2023-04-19T11:15:02;10.65;;;9.50;;
40154;SDS011;25875;48.202;16.334;2023-04-19T11:17:33;10.02;;;8.73;;
40154;SDS011;25875;48.202;16.334;2023-04-19T11:20:04;12.45;;;8.85;;
40154;SDS011;25875;48.202;16.334;2023-04-19T11:22:34;9.55;;;7.95;;
40154;SDS011;25875;48.202;16.334;2023-04-19T11:25:06;12.40;;;9.27;;
40154;SDS011;25875;48.202;16.334;2023-04-19T11:27:34;11.15;;;8.93;;
40154;SDS011;25875;48.202;16.334;2023-04-19T11:30:02;9.38;;;7.63;;
40154;SDS011;25875;48.202;16.334;2023-04-19T11:32:29;9.45;;;8.07;;
40154;SDS011;25875;48.202;16.334;2023-04-19T11:34:56;9.10;;;7.50;;
40154;SDS011;25875;48.202;16.334;2023-04-19T11:37:24;9.38;;;8.05;;
40154;SDS011;25875;48.202;16.334;2023-04-19T11:39:57;8.20;;;6.93;;
40154;SDS011;25875;48.202;16.334;2023-04-19T11:42:24;8.80;;;7.43;;
40154;SDS011;25875;48.202;16.334;2023-04-19T11:44:51;9.45;;;7.18;;
40154;SDS011;25875;48.202;16.334;2023-04-19T11:47:18;7.82;;;6.97;;
40154;SDS011;25875;48.202;16.334;2023-04-19T11:49:44;8.50;;;7.18;;
40154;SDS011;25875;48.202;16.334;2023-04-19T11:52:19;8.95;;;6.82;;
40154;SDS011;25875;48.202;16.334;2023-04-19T11:54:49;9.38;;;7.65;;
40154;SDS011;25875;48.202;16.334;2023-04-19T11:57:25;8.57;;;7.47;;
40154;SDS011;25875;48.202;16.334;2023-04-19T12:00:06;7.80;;;6.72;;
40154;SDS011;25875;48.202;16.334;2023-04-19T12:02:36;8.55;;;6.65;;
40154;SDS011;25875;48.202;16.334;2023-04-19T12:05:08;6.50;;;5.82;;
40154;SDS011;25875;48.202;16.334;2023-04-19T12:07:36;6.25;;;5.63;;
40154;SDS011;25875;48.202;16.334;2023-04-19T12:10:11;7.57;;;5.97;;
40154;SDS011;25875;48.202;16.334;2023-04-19T12:12:38;6.75;;;5.50;;
40154;SDS011;25875;48.202;16.334;2023-04-19T12:15:05;7.97;;;6.70;;
40154;SDS011;25875;48.202;16.334;2023-04-19T12:17:33;9.48;;;6.60;;
40154;SDS011;25875;48.202;16.334;2023-04-19T12:19:59;7.70;;;6.07;;
40154;SDS011;25875;48.202;16.334;2023-04-19T12:22:26;7.75;;;5.40;;
40154;SDS011;25875;48.202;16.334;2023-04-19T12:24:53;7.35;;;5.70;;
40154;SDS011;25875;48.202;16.334;2023-04-19T12:27:21;6.75;;;5.55;;
40154;SDS011;25875;48.202;16.334;2023-04-19T12:29:49;8.25;;;5.95;;
40154;SDS011;25875;48.202;16.334;2023-04-19T12:32:16;9.73;;;7.47;;
40154;SDS011;25875;48.202;16.334;2023-04-19T12:34:43;8.05;;;6.75;;
40154;SDS011;25875;48.202;16.334;2023-04-19T12:37:10;8.18;;;6.50;;
40154;SDS011;25875;48.202;16.334;2023-04-19T12:39:37;8.70;;;5.90;;
40154;SDS011;25875;48.202;16.334;2023-04-19T12:42:03;8.35;;;6.50;;
40154;SDS011;25875;48.202;16.334;2023-04-19T12:44:32;7.90;;;6.68;;
40154;SDS011;25875;48.202;16.334;2023-04-19T12:46:59;7.32;;;5.57;;
40154;SDS011;25875;48.202;16.334;2023-04-19T12:49:26;6.88;;;5.55;;
40154;SDS011;25875;48.202;16.334;2023-04-19T12:51:52;6.75;;;5.93;;
40154;SDS011;25875;48.202;16.334;2023-04-19T12:54:19;6.63;;;5.50;;
40154;SDS011;25875;48.202;16.334;2023-04-19T12:56:46;7.70;;;6.90;;
40154;SDS011;25875;48.202;16.334;2023-04-19T12:59:12;7.40;;;5.50;;
40154;SDS011;25875;48.202;16.334;2023-04-19T13:01:40;11.85;;;8.27;;
40154;SDS011;25875;48.202;16.334;2023-04-19T13:04:07;9.27;;;6.80;;
40154;SDS011;25875;48.202;16.334;2023-04-19T13:06:36;8.93;;;6.03;;
40154;SDS011;25875;48.202;16.334;2023-04-19T13:09:03;7.38;;;5.50;;
40154;SDS011;25875;48.202;16.334;2023-04-19T13:11:31;7.57;;;6.00;;
40154;SDS011;25875;48.202;16.334;2023-04-19T13:13:57;7.95;;;6.15;;
40154;SDS011;25875;48.202;16.334;2023-04-19T13:16:24;7.70;;;6.10;;
40154;SDS011;25875;48.202;16.334;2023-04-19T13:18:52;7.20;;;5.20;;
40154;SDS011;25875;48.202;16.334;2023-04-19T13:21:19;7.60;;;5.90;;
40154;SDS011;25875;48.202;16.334;2023-04-19T13:23:47;7.15;;;6.07;;
40154;SDS011;25875;48.202;16.334;2023-04-19T13:26:14;6.75;;;5.85;;
40154;SDS011;25875;48.202;16.334;2023-04-19T13:28:41;6.78;;;5.63;;
40154;SDS011;25875;48.202;16.334;2023-04-19T13:31:08;6.88;;;6.07;;
40154;SDS011;25875;48.202;16.334;2023-04-19T13:33:34;8.32;;;6.30;;
40154;SDS011;25875;48.202;16.334;2023-04-19T13:36:03;7.78;;;6.00;;
40154;SDS011;25875;48.202;16.334;2023-04-19T13:38:30;6.00;;;5.40;;
40154;SDS011;25875;48.202;16.334;2023-04-19T13:40:57;8.90;;;7.35;;
40154;SDS011;25875;48.202;16.334;2023-04-19T13:43:24;6.93;;;6.07;;
40154;SDS011;25875;48.202;16.334;2023-04-19T13:45:51;7.00;;;5.93;;
40154;SDS011;25875;48.202;16.334;2023-04-19T13:48:18;6.68;;;5.88;;
40154;SDS011;25875;48.202;16.334;2023-04-19T13:50:45;6.57;;;5.82;;
40154;SDS011;25875;48.202;16.334;2023-04-19T13:53:13;7.13;;;6.10;;
40154;SDS011;25875;48.202;16.334;2023-04-19T13:55:39;8.38;;;6.57;;
40154;SDS011;25875;48.202;16.334;2023-04-19T13:58:06;6.68;;;5.97;;
40154;SDS011;25875;48.202;16.334;2023-04-19T14:00:33;6.70;;;5.28;;
40154;SDS011;25875;48.202;16.334;2023-04-19T14:03:00;6.72;;;5.57;;
40154;SDS011;25875;48.202;16.334;2023-04-19T14:05:26;7.15;;;5.10;;
40154;SDS011;25875;48.202;16.334;2023-04-19T14:07:53;5.90;;;4.90;;
40154;SDS011;25875;48.202;16.334;2023-04-19T14:10:21;6.40;;;4.80;;
40154;SDS011;25875;48.202;16.334;2023-04-19T14:12:48;7.50;;;5.55;;
40154;SDS011;25875;48.202;16.334;2023-04-19T14:15:16;5.95;;;5.10;;
40154;SDS011;25875;48.202;16.334;2023-04-19T14:17:43;7.85;;;6.18;;
40154;SDS011;25875;48.202;16.334;2023-04-19T14:20:10;5.85;;;4.85;;
40154;SDS011;25875;48.202;16.334;2023-04-19T14:22:37;8.25;;;6.43;;
40154;SDS011;25875;48.202;16.334;2023-04-19T14:25:04;8.18;;;5.43;;
40154;SDS011;25875;48.202;16.334;2023-04-19T14:27:33;7.80;;;5.43;;